createdAt,value
2017-06-12T00:00:21.393Z,44.80
2017-06-12T00:02:49.795Z,44.90
2017-06-12T00:05:18.209Z,44.80
2017-06-12T00:07:46.816Z,44.60
2017-06-12T00:10:15.210Z,44.60
2017-06-12T00:12:43.613Z,44.40
2017-06-12T00:15:12.063Z,44.30
2017-06-12T00:17:40.436Z,44.90
2017-06-12T00:20:09.052Z,44.40
2017-06-12T00:22:37.611Z,44.50
2017-06-12T00:25:06.154Z,44.70
2017-06-12T00:27:34.516Z,44.70
2017-06-12T00:30:03.300Z,44.80
2017-06-12T00:32:31.706Z,44.80
2017-06-12T00:35:00.144Z,45.00
2017-06-12T00:37:28.548Z,45.00
2017-06-12T00:39:56.919Z,45.40
2017-06-12T00:42:25.345Z,44.90
2017-06-12T00:44:53.938Z,44.80
2017-06-12T00:47:23.176Z,44.60
2017-06-12T00:49:51.617Z,44.50
2017-06-12T00:52:20.100Z,44.80
2017-06-12T00:54:48.453Z,45.00
2017-06-12T00:57:17.605Z,44.50
2017-06-12T00:59:46.136Z,44.40
2017-06-12T01:02:15.320Z,44.70
2017-06-12T01:04:43.707Z,44.00
2017-06-12T01:07:12.102Z,44.00
2017-06-12T01:09:41.251Z,44.00
2017-06-12T01:12:09.645Z,43.90
2017-06-12T01:14:38.126Z,43.90
2017-06-12T01:17:06.543Z,44.10
2017-06-12T01:19:34.950Z,44.10
2017-06-12T01:22:15.647Z,44.00
2017-06-12T01:24:44.057Z,43.80
2017-06-12T01:27:12.566Z,43.70
2017-06-12T01:29:41.055Z,43.40
2017-06-12T01:32:09.454Z,42.90
2017-06-12T01:34:37.915Z,42.50
2017-06-12T01:37:06.506Z,42.80
2017-06-12T01:39:34.897Z,42.50
2017-06-12T01:42:03.286Z,42.60
2017-06-12T01:44:31.837Z,42.60
2017-06-12T01:47:00.247Z,42.90
2017-06-12T01:49:28.637Z,42.90
2017-06-12T01:51:57.284Z,42.40
2017-06-12T01:54:25.684Z,42.30
2017-06-12T01:56:54.076Z,41.90
2017-06-12T01:59:22.530Z,41.80
2017-06-12T02:01:51.037Z,41.80
2017-06-12T02:04:19.417Z,41.70
2017-06-12T02:06:47.834Z,40.90
2017-06-12T02:09:16.977Z,39.90
2017-06-12T02:11:45.384Z,39.90
2017-06-12T02:14:14.114Z,39.90
2017-06-12T02:16:42.699Z,39.70
2017-06-12T02:19:11.904Z,39.30
2017-06-12T02:21:40.479Z,39.20
2017-06-12T02:24:08.874Z,38.60
2017-06-12T02:26:37.243Z,38.50
2017-06-12T02:29:05.811Z,38.20
2017-06-12T02:31:34.204Z,37.90
2017-06-12T02:34:02.611Z,37.80
2017-06-12T02:36:31.213Z,37.80
2017-06-12T02:39:01.219Z,37.60
2017-06-12T02:41:29.616Z,37.50
2017-06-12T02:43:58.146Z,37.60
2017-06-12T02:46:26.624Z,38.00
2017-06-12T02:48:55.037Z,37.70
2017-06-12T02:51:23.512Z,37.60
2017-06-12T02:53:51.911Z,37.70
2017-06-12T02:56:20.317Z,37.80
2017-06-12T02:58:49.649Z,37.80
2017-06-12T03:01:18.126Z,37.70
2017-06-12T03:03:46.512Z,37.80
2017-06-12T03:06:15.042Z,37.60
2017-06-12T03:08:43.465Z,37.70
2017-06-12T03:11:11.841Z,37.50
2017-06-12T03:13:40.427Z,38.00
2017-06-12T03:16:09.552Z,37.80
2017-06-12T03:18:37.927Z,37.70
2017-06-12T03:21:06.361Z,37.60
2017-06-12T03:23:35.515Z,38.20
2017-06-12T03:26:03.902Z,38.20
2017-06-12T03:28:32.340Z,38.10
2017-06-12T03:31:00.794Z,38.20
2017-06-12T03:33:30.122Z,38.20
2017-06-12T03:35:59.525Z,37.90
2017-06-12T03:38:27.876Z,37.70
2017-06-12T03:40:56.299Z,38.00
2017-06-12T03:43:24.735Z,37.90
2017-06-12T03:45:53.145Z,38.70
2017-06-12T03:48:21.539Z,38.30
2017-06-12T03:50:50.166Z,38.40
2017-06-12T03:53:18.636Z,38.30
2017-06-12T03:55:47.053Z,38.20
2017-06-12T03:58:15.473Z,38.60
2017-06-12T04:00:43.952Z,38.40
2017-06-12T04:03:12.335Z,38.40
2017-06-12T04:05:40.947Z,38.70
2017-06-12T04:08:09.435Z,39.00
2017-06-12T04:10:37.890Z,39.00
2017-06-12T04:13:06.503Z,38.90
2017-06-12T04:15:35.943Z,39.90
2017-06-12T04:18:04.364Z,39.10
2017-06-12T04:20:32.888Z,39.10
2017-06-12T04:23:01.272Z,39.20
2017-06-12T04:25:29.680Z,39.30
2017-06-12T04:27:58.212Z,39.30
2017-06-12T04:30:26.619Z,39.90
2017-06-12T04:32:54.999Z,40.50
2017-06-12T04:35:23.529Z,41.50
2017-06-12T04:37:52.025Z,42.00
2017-06-12T04:40:20.478Z,42.40
2017-06-12T04:42:49.904Z,42.80
2017-06-12T04:45:18.553Z,42.10
2017-06-12T04:47:46.974Z,42.30
2017-06-12T04:50:15.563Z,42.40
2017-06-12T04:52:43.948Z,42.50
2017-06-12T04:55:12.352Z,42.60
2017-06-12T04:57:40.798Z,42.70
2017-06-12T05:00:09.193Z,42.70
2017-06-12T05:02:37.659Z,43.50
2017-06-12T05:05:06.347Z,43.40
2017-06-12T05:07:36.423Z,43.40
2017-06-12T05:10:04.942Z,43.50
2017-06-12T05:12:33.372Z,43.50
2017-06-12T05:15:01.768Z,43.80
2017-06-12T05:17:30.144Z,43.40
2017-06-12T05:19:59.350Z,43.90
2017-06-12T05:22:27.724Z,43.80
2017-06-12T05:24:56.173Z,43.90
2017-06-12T05:27:24.701Z,44.00
2017-06-12T05:29:53.869Z,44.50
2017-06-12T05:32:23.163Z,44.50
2017-06-12T05:34:51.616Z,44.50
2017-06-12T05:37:20.016Z,44.70
2017-06-12T05:39:48.484Z,44.90
2017-06-12T05:42:17.131Z,44.80
2017-06-12T05:44:45.623Z,45.00
2017-06-12T05:47:14.789Z,45.50
2017-06-12T05:49:43.305Z,45.50
2017-06-12T05:52:11.835Z,45.60
2017-06-12T05:54:40.249Z,45.70
2017-06-12T05:57:08.680Z,45.70
2017-06-12T05:59:37.147Z,45.50
2017-06-12T06:02:05.529Z,45.70
2017-06-12T06:04:34.179Z,46.00
2017-06-12T06:07:03.373Z,46.70
2017-06-12T06:09:31.815Z,46.70
2017-06-12T06:12:00.239Z,46.60
2017-06-12T06:14:30.045Z,47.00
2017-06-12T06:16:58.441Z,47.00
2017-06-12T06:19:26.966Z,47.20
2017-06-12T06:21:55.541Z,47.50
2017-06-12T06:24:23.924Z,47.40
2017-06-12T06:26:52.563Z,47.30
2017-06-12T06:29:20.979Z,47.40
2017-06-12T06:31:49.385Z,47.30
2017-06-12T06:34:17.795Z,47.50
2017-06-12T06:36:46.221Z,47.50
2017-06-12T06:39:14.628Z,47.40
2017-06-12T06:41:43.063Z,47.60
2017-06-12T06:44:11.442Z,47.50
2017-06-12T06:46:39.820Z,47.60
2017-06-12T06:49:08.237Z,47.50
2017-06-12T06:51:36.635Z,48.20
2017-06-12T06:54:05.776Z,48.70
2017-06-12T06:56:34.394Z,48.60
2017-06-12T06:59:02.896Z,48.70
2017-06-12T07:01:31.311Z,48.40
2017-06-12T07:03:59.816Z,48.60
2017-06-12T07:06:28.266Z,48.70
2017-06-12T07:08:57.392Z,48.80
2017-06-12T07:11:25.871Z,48.80
2017-06-12T07:13:54.275Z,48.60
2017-06-12T07:16:22.706Z,48.40
2017-06-12T07:18:51.408Z,48.60
2017-06-12T07:21:19.850Z,48.30
2017-06-12T07:23:54.734Z,48.40
2017-06-12T07:26:23.232Z,48.70
2017-06-12T07:28:51.630Z,48.90
2017-06-12T07:31:20.152Z,48.90
2017-06-12T07:33:48.551Z,48.90
2017-06-12T07:36:17.107Z,49.10
2017-06-12T07:38:46.414Z,49.00
2017-06-12T07:41:14.828Z,49.70
2017-06-12T07:43:43.259Z,48.90
2017-06-12T07:46:11.951Z,48.80
2017-06-12T07:48:40.350Z,48.50
2017-06-12T07:51:08.771Z,48.40
2017-06-12T07:53:38.100Z,48.10
2017-06-12T07:56:06.537Z,48.10
2017-06-12T07:58:34.934Z,48.00
2017-06-12T08:01:03.454Z,47.20
2017-06-12T08:03:31.876Z,47.50
2017-06-12T08:06:00.306Z,47.80
2017-06-12T08:08:28.966Z,47.90
2017-06-12T08:10:58.135Z,48.00
2017-06-12T08:13:26.577Z,47.90
2017-06-12T08:15:55.123Z,47.90
2017-06-12T08:18:23.508Z,47.50
2017-06-12T08:20:53.115Z,47.10
2017-06-12T08:23:21.647Z,47.10
2017-06-12T08:25:50.036Z,47.10
2017-06-12T08:28:18.596Z,47.80
2017-06-12T08:30:47.172Z,47.20
2017-06-12T08:33:15.629Z,46.80
2017-06-12T08:35:44.851Z,46.60
2017-06-12T08:38:13.997Z,46.40
2017-06-12T08:40:42.373Z,46.40
2017-06-12T08:43:10.765Z,46.20
2017-06-12T08:45:39.493Z,46.20
2017-06-12T08:48:07.991Z,46.10
2017-06-12T08:50:36.436Z,45.90
2017-06-12T08:53:05.762Z,46.20
2017-06-12T08:55:34.143Z,45.40
2017-06-12T08:58:02.527Z,45.20
2017-06-12T09:00:31.026Z,44.70
2017-06-12T09:02:59.438Z,44.20
2017-06-12T09:05:28.601Z,43.70
2017-06-12T09:07:57.259Z,43.60
2017-06-12T09:10:25.636Z,43.60
2017-06-12T09:12:54.019Z,43.50
2017-06-12T09:15:22.444Z,43.40
2017-06-12T09:17:50.840Z,43.20
2017-06-12T09:23:21.388Z,42.80
2017-06-12T09:25:50.017Z,42.30
2017-06-12T09:28:18.455Z,42.30
2017-06-12T09:30:46.885Z,42.60
2017-06-12T09:33:15.361Z,42.80
2017-06-12T09:35:43.832Z,43.00
2017-06-12T09:38:12.951Z,42.90
2017-06-12T09:40:42.344Z,42.90
2017-06-12T09:43:10.763Z,42.50
2017-06-12T09:45:39.145Z,41.70
2017-06-12T09:48:07.782Z,41.30
2017-06-12T09:50:36.163Z,41.10
2017-06-12T09:53:04.587Z,41.30
2017-06-12T09:55:33.374Z,41.80
2017-06-12T09:58:01.924Z,42.00
2017-06-12T10:00:30.335Z,42.60
2017-06-12T10:02:58.957Z,42.70
2017-06-12T10:05:27.350Z,42.50
2017-06-12T10:07:55.740Z,42.70
2017-06-12T10:10:24.282Z,42.10
2017-06-12T10:12:53.430Z,42.80
2017-06-12T10:15:21.815Z,42.10
2017-06-12T10:17:50.230Z,41.80
2017-06-12T10:20:19.392Z,41.30
2017-06-12T10:22:47.808Z,41.30
2017-06-12T10:25:16.325Z,41.80
2017-06-12T10:27:44.752Z,41.60
2017-06-12T10:30:13.146Z,40.90
2017-06-12T10:32:41.771Z,40.20
2017-06-12T10:35:10.200Z,39.90
2017-06-12T10:37:39.449Z,40.50
2017-06-12T10:40:08.060Z,40.50
2017-06-12T10:42:36.425Z,40.20
2017-06-12T10:45:04.858Z,39.60
2017-06-12T10:47:34.397Z,39.70
2017-06-12T10:50:02.793Z,39.70
2017-06-12T10:52:31.211Z,40.00
2017-06-12T10:55:00.854Z,39.70
2017-06-12T10:57:29.439Z,39.80
2017-06-12T10:59:57.964Z,40.00
2017-06-12T11:02:26.780Z,39.10
2017-06-12T11:04:56.680Z,39.20
2017-06-12T11:07:25.066Z,39.60
2017-06-12T11:09:53.483Z,39.60
2017-06-12T11:12:21.881Z,39.30
2017-06-12T11:14:50.263Z,39.40
2017-06-12T11:17:18.933Z,39.20
2017-06-12T11:19:47.387Z,38.80
2017-06-12T11:22:15.820Z,38.70
2017-06-12T11:24:44.228Z,38.90
2017-06-12T11:27:12.623Z,39.10
2017-06-12T11:29:41.016Z,39.30
2017-06-12T11:32:09.469Z,39.50
2017-06-12T11:34:37.888Z,39.30
2017-06-12T11:37:06.373Z,38.90
2017-06-12T11:39:34.877Z,39.00
2017-06-12T11:42:03.288Z,39.50
2017-06-12T11:44:31.716Z,39.40
2017-06-12T11:47:00.408Z,39.50
2017-06-12T11:49:28.817Z,40.00
2017-06-12T11:51:57.228Z,39.20
2017-06-12T11:54:25.849Z,38.30
2017-06-12T11:56:54.253Z,38.10
2017-06-12T11:59:22.710Z,38.00
2017-06-12T12:01:51.271Z,37.90
2017-06-12T12:04:20.414Z,38.10
2017-06-12T12:06:48.804Z,38.10
2017-06-12T12:09:17.360Z,38.30
2017-06-12T12:11:45.757Z,38.20
2017-06-12T12:14:14.164Z,38.30
2017-06-12T12:16:42.760Z,38.40
2017-06-12T12:19:11.205Z,38.70
2017-06-12T12:21:39.625Z,38.90
2017-06-12T12:24:08.025Z,39.20
2017-06-12T12:26:36.413Z,39.10
2017-06-12T12:29:04.819Z,38.90
2017-06-12T12:31:33.484Z,39.10
2017-06-12T12:34:02.066Z,38.90
2017-06-12T12:36:30.502Z,38.50
2017-06-12T12:38:58.928Z,38.20
2017-06-12T12:41:27.347Z,38.30
2017-06-12T12:43:55.786Z,38.40
2017-06-12T12:46:24.222Z,38.40
2017-06-12T12:48:52.618Z,38.60
2017-06-12T12:51:21.058Z,38.50
2017-06-12T12:53:49.501Z,38.40
2017-06-12T12:56:18.812Z,38.70
2017-06-12T12:58:47.237Z,38.90
2017-06-12T13:01:15.646Z,38.70
2017-06-12T13:03:44.068Z,38.60
2017-06-12T13:06:12.616Z,39.10
2017-06-12T13:08:41.052Z,39.10
2017-06-12T13:11:09.473Z,39.10
2017-06-12T13:13:38.131Z,39.20
2017-06-12T13:16:06.550Z,39.30
2017-06-12T13:18:34.935Z,39.40
2017-06-12T13:21:03.599Z,39.20
2017-06-12T13:23:32.023Z,39.20
2017-06-12T13:26:01.173Z,39.30
2017-06-12T13:28:29.715Z,39.40
2017-06-12T13:30:58.263Z,39.50
2017-06-12T13:33:26.667Z,39.10
2017-06-12T13:35:55.120Z,39.20
2017-06-12T13:38:23.617Z,39.30
2017-06-12T13:40:52.028Z,38.90
2017-06-12T13:43:20.453Z,39.10
2017-06-12T13:45:48.862Z,39.20
2017-06-12T13:48:17.241Z,39.30
2017-06-12T13:50:45.759Z,39.60
2017-06-12T13:53:14.949Z,39.60
2017-06-12T13:55:43.338Z,39.60
2017-06-12T13:58:11.994Z,39.60
2017-06-12T14:00:40.384Z,39.80
2017-06-12T14:03:08.782Z,39.00
2017-06-12T14:05:37.382Z,38.90
2017-06-12T14:08:05.818Z,39.00
2017-06-12T14:10:53.823Z,38.60
2017-06-12T14:13:22.244Z,38.50
2017-06-12T14:15:50.689Z,38.90
2017-06-12T14:18:19.154Z,39.10
2017-06-12T14:20:47.594Z,38.90
2017-06-12T14:23:16.122Z,39.10
2017-06-12T14:25:44.510Z,39.80
2017-06-12T14:28:12.938Z,40.00
2017-06-12T14:30:41.347Z,39.40
2017-06-12T14:33:09.927Z,39.10
2017-06-12T14:35:38.430Z,39.40
2017-06-12T14:38:06.842Z,39.60
2017-06-12T14:40:35.505Z,39.60
2017-06-12T14:43:03.930Z,40.50
2017-06-12T14:45:32.368Z,40.20
2017-06-12T14:48:00.775Z,39.90
2017-06-12T14:50:29.208Z,39.80
2017-06-12T14:52:57.685Z,40.20
2017-06-12T14:55:26.122Z,40.20
2017-06-12T14:57:54.551Z,40.20
2017-06-12T15:00:22.974Z,40.30
2017-06-12T15:02:51.546Z,39.70
2017-06-12T15:05:19.939Z,39.80
2017-06-12T15:07:48.382Z,39.70
2017-06-12T15:10:16.918Z,39.90
2017-06-12T15:12:45.314Z,39.90
2017-06-12T15:15:13.712Z,39.80
2017-06-12T15:17:42.604Z,39.90
2017-06-12T15:20:11.307Z,39.80
2017-06-12T15:22:39.738Z,39.70
2017-06-12T15:25:08.348Z,39.90
2017-06-12T15:27:36.799Z,39.90
2017-06-12T15:30:06.338Z,40.10
2017-06-12T15:32:35.876Z,40.00
2017-06-12T15:35:04.271Z,39.90
2017-06-12T15:37:32.700Z,40.10
2017-06-12T15:40:01.179Z,40.10
2017-06-12T15:42:29.621Z,40.40
2017-06-12T15:44:58.056Z,40.80
2017-06-12T15:47:26.467Z,40.80
2017-06-12T15:49:55.916Z,40.20
2017-06-12T15:52:24.334Z,40.10
2017-06-12T15:54:52.797Z,40.00
2017-06-12T15:57:21.386Z,40.40
2017-06-12T15:59:49.786Z,40.40
2017-06-12T16:02:18.993Z,41.60
2017-06-12T16:04:47.702Z,41.00
2017-06-12T16:07:16.872Z,40.70
2017-06-12T16:09:45.310Z,40.90
2017-06-12T16:12:13.770Z,41.20
2017-06-12T16:14:42.199Z,41.40
2017-06-12T16:17:10.900Z,41.70
2017-06-12T16:19:39.490Z,41.80
2017-06-12T16:22:07.954Z,41.60
2017-06-12T16:24:36.354Z,41.40
2017-06-12T16:27:05.114Z,41.60
2017-06-12T16:29:33.571Z,41.70
2017-06-12T16:32:02.028Z,41.90
2017-06-12T16:34:30.837Z,41.80
2017-06-12T16:36:59.279Z,41.80
2017-06-12T16:39:27.804Z,41.60
2017-06-12T16:41:56.390Z,41.40
2017-06-12T16:44:24.903Z,41.20
2017-06-12T16:46:53.336Z,41.00
2017-06-12T16:49:21.839Z,41.10
2017-06-12T16:51:50.278Z,41.60
2017-06-12T16:54:19.496Z,41.60
2017-06-12T16:56:48.130Z,41.60
2017-06-12T16:59:16.581Z,41.90
2017-06-12T17:01:45.087Z,42.00
2017-06-12T17:04:13.590Z,41.70
2017-06-12T17:06:42.011Z,41.30
2017-06-12T17:09:10.437Z,41.10
2017-06-12T17:11:39.220Z,41.10
2017-06-12T17:14:07.802Z,41.00
2017-06-12T17:16:37.160Z,41.00
2017-06-12T17:19:05.876Z,41.00
2017-06-12T17:21:34.316Z,41.30
2017-06-12T17:24:04.375Z,41.30
2017-06-12T17:26:33.326Z,41.30
2017-06-12T17:29:01.777Z,41.30
2017-06-12T17:31:30.378Z,41.40
2017-06-12T17:33:59.144Z,41.70
2017-06-12T17:36:27.694Z,41.80
2017-06-12T17:38:56.192Z,41.40
2017-06-12T17:41:24.759Z,41.20
2017-06-12T17:43:53.221Z,41.10
2017-06-12T17:46:21.715Z,41.10
2017-06-12T17:48:50.302Z,41.20
2017-06-12T17:51:23.336Z,41.40
2017-06-12T17:53:52.290Z,41.60
2017-06-12T17:56:20.664Z,41.60
2017-06-12T17:58:49.237Z,41.50
2017-06-12T18:01:18.384Z,41.60
2017-06-12T18:03:47.594Z,42.20
2017-06-12T18:06:16.094Z,42.10
2017-06-12T18:08:44.913Z,42.20
2017-06-12T18:11:13.513Z,42.30
2017-06-12T18:13:42.138Z,42.60
2017-06-12T18:16:11.551Z,42.50
2017-06-12T18:18:40.159Z,42.50
2017-06-12T18:21:09.496Z,42.50
2017-06-12T18:23:38.202Z,42.40
2017-06-12T18:26:06.948Z,42.60
2017-06-12T18:28:35.567Z,42.70
2017-06-12T18:31:04.158Z,42.70
2017-06-12T18:33:32.577Z,43.10
2017-06-12T18:36:01.047Z,43.00
2017-06-12T18:38:29.581Z,42.90
2017-06-12T18:40:58.035Z,43.00
2017-06-12T18:43:26.620Z,42.90
2017-06-12T18:45:55.477Z,42.90
2017-06-12T18:48:23.886Z,42.90
2017-06-12T18:50:52.340Z,42.90
2017-06-12T18:53:20.898Z,42.80
2017-06-12T18:55:49.336Z,42.90
2017-06-12T18:58:17.789Z,42.80
2017-06-12T19:00:46.438Z,43.00
2017-06-12T19:03:14.943Z,43.60
2017-06-12T19:05:43.423Z,43.60
2017-06-12T19:08:11.898Z,43.70
2017-06-12T19:10:40.645Z,43.70
2017-06-12T19:13:09.175Z,43.70
2017-06-12T19:15:37.607Z,43.70
2017-06-12T19:18:06.102Z,43.70
2017-06-12T19:20:34.530Z,43.70
2017-06-12T19:23:03.021Z,43.60
2017-06-12T19:25:31.506Z,43.70
2017-06-12T19:28:00.184Z,43.70
2017-06-12T19:30:28.720Z,43.30
2017-06-12T19:32:57.244Z,43.40
2017-06-12T19:35:25.663Z,43.20
2017-06-12T19:37:54.141Z,43.20
2017-06-12T19:40:22.719Z,43.60
2017-06-12T19:42:51.171Z,43.60
2017-06-12T19:45:20.412Z,43.40
2017-06-12T19:47:48.858Z,43.40
2017-06-12T19:50:17.287Z,43.30
2017-06-12T19:52:45.757Z,43.50
2017-06-12T19:55:14.275Z,43.40
2017-06-12T19:57:42.718Z,43.50
2017-06-12T20:00:11.243Z,43.40
2017-06-12T20:02:40.169Z,43.50
2017-06-12T20:05:08.637Z,43.50
2017-06-12T20:07:38.184Z,43.50
2017-06-12T20:10:06.631Z,43.50
2017-06-12T20:12:35.094Z,43.50
2017-06-12T20:15:03.703Z,43.50
2017-06-12T20:17:32.594Z,43.50
2017-06-12T20:20:01.118Z,43.60
2017-06-12T20:22:31.412Z,43.60
2017-06-12T20:24:59.881Z,43.60
2017-06-12T20:27:28.463Z,43.70
2017-06-12T20:29:57.087Z,43.60
2017-06-12T20:32:25.510Z,43.60
2017-06-12T20:34:54.020Z,43.60
2017-06-12T20:37:22.556Z,43.60
2017-06-12T20:39:51.773Z,43.60
2017-06-12T20:42:20.945Z,43.60
2017-06-12T20:44:50.148Z,44.30
2017-06-12T20:47:20.178Z,43.60
2017-06-12T20:49:48.898Z,43.60
2017-06-12T20:52:17.364Z,43.60
2017-06-12T20:54:45.886Z,43.60
2017-06-12T20:57:14.381Z,43.70
2017-06-12T20:59:43.046Z,43.70
2017-06-12T21:02:11.582Z,43.60
2017-06-12T21:04:41.537Z,43.60
2017-06-12T21:07:10.167Z,43.60
2017-06-12T21:09:39.390Z,43.60
2017-06-12T21:12:07.892Z,43.60
2017-06-12T21:14:36.466Z,43.60
2017-06-12T21:17:04.954Z,43.60
2017-06-12T21:19:33.413Z,43.50
2017-06-12T21:22:01.970Z,43.30
2017-06-12T21:24:31.032Z,43.60
2017-06-12T21:27:00.082Z,44.00
2017-06-12T21:29:29.553Z,44.10
2017-06-12T21:31:58.087Z,44.10
2017-06-12T21:34:26.522Z,44.30
2017-06-12T21:36:55.772Z,45.30
2017-06-12T21:39:24.169Z,44.60
2017-06-12T21:41:53.053Z,44.60
2017-06-12T21:44:21.539Z,44.70
2017-06-12T21:46:49.953Z,44.50
2017-06-12T21:49:18.370Z,44.60
2017-06-12T21:51:47.815Z,44.80
2017-06-12T21:54:26.323Z,44.80
2017-06-12T21:56:54.790Z,44.70
2017-06-12T21:59:23.220Z,44.90
2017-06-12T22:01:52.397Z,45.60
2017-06-12T22:04:21.052Z,44.90
2017-06-12T22:06:49.477Z,44.90
2017-06-12T22:09:17.883Z,44.90
2017-06-12T22:11:47.137Z,45.00
2017-06-12T22:14:15.691Z,45.00
2017-06-12T22:16:44.075Z,44.90
2017-06-12T22:19:12.539Z,44.90
2017-06-12T22:21:40.955Z,45.00
2017-06-12T22:24:09.363Z,45.20
2017-06-12T22:26:37.764Z,45.20
2017-06-12T22:29:06.911Z,45.20
2017-06-12T22:31:35.317Z,45.10
2017-06-12T22:34:04.500Z,45.30
2017-06-12T22:36:32.932Z,45.20
2017-06-12T22:39:02.095Z,45.30
2017-06-12T22:41:30.525Z,45.30
2017-06-12T22:43:58.992Z,46.20
2017-06-12T22:46:27.384Z,45.60
2017-06-12T22:48:55.851Z,45.60
2017-06-12T22:51:25.260Z,46.20
2017-06-12T22:53:53.630Z,45.50
2017-06-12T22:56:22.043Z,45.50
2017-06-12T22:58:50.519Z,45.70
2017-06-12T23:01:18.915Z,45.70
2017-06-12T23:03:47.277Z,45.70
2017-06-12T23:06:15.728Z,45.70
2017-06-12T23:08:44.116Z,45.60
2017-06-12T23:11:12.510Z,45.70
2017-06-12T23:13:41.096Z,45.80
2017-06-12T23:16:09.495Z,46.10
2017-06-12T23:18:38.069Z,46.20
2017-06-12T23:21:06.683Z,46.10
2017-06-12T23:23:35.057Z,46.20
2017-06-12T23:26:09.210Z,46.00
2017-06-12T23:28:37.582Z,46.10
2017-06-12T23:31:05.973Z,45.90
2017-06-12T23:33:34.561Z,46.00
2017-06-12T23:36:03.176Z,46.10
2017-06-12T23:38:31.561Z,46.30
2017-06-12T23:41:00.116Z,46.30
2017-06-12T23:43:28.544Z,46.30
2017-06-12T23:45:57.715Z,46.40
2017-06-12T23:48:26.177Z,46.30
2017-06-12T23:50:54.564Z,46.80
2017-06-12T23:53:22.944Z,46.70
2017-06-12T23:55:51.371Z,46.60
2017-06-12T23:58:20.548Z,46.60
